Bradford, Indiana
Current Conditions -  °F | °C
As of 4:56 AM on Saturday 25 Oct 2014 (Local Time) from KSDF Reporting Station
Scattered Clouds Scattered Clouds  
Wind Chill: 50°   Ceiling: Unl
Heat Index: 50°   Visibility: 10mi
Dew Point: 46°   Wind: 12mph
Humidity: 86%   Direction: 140°SE
Pressure: 30.03"   Gusts: NA
Location:  38.37°N, 86.06°W
Report Text: KSDF 250856Z 14010KT 10SM SCT090 SCT200 10/08 A3003 RMK AO2 SLP168 T01000078 58006
Loading
Personal Weather Stations






























Interactive Weather Map
Tropical Storm Tracking
New forecast layout! Learn more

10-Day Weather Forecast

Advertisements
Track Severe Weather on mobile